sensor_id;sensor_type;location;lat;lon;timestamp;temperature;humidity
4787;DHT22;62338;48.832;9.422;2023-06-22T13:00:31;31.20;99.90
4787;DHT22;62338;48.832;9.422;2023-06-22T13:02:33;31.00;1.00
4787;DHT22;62338;48.832;9.422;2023-06-22T13:04:35;30.90;99.90
4787;DHT22;62338;48.832;9.422;2023-06-22T13:06:37;30.90;1.00
4787;DHT22;62338;48.832;9.422;2023-06-22T13:08:38;30.90;99.90
4787;DHT22;62338;48.832;9.422;2023-06-22T13:10:43;31.10;99.90
4787;DHT22;62338;48.832;9.422;2023-06-22T13:12:45;31.20;99.90
4787;DHT22;62338;48.832;9.422;2023-06-22T13:14:46;31.30;99.90
4787;DHT22;62338;48.832;9.422;2023-06-22T13:16:49;31.50;1.00
4787;DHT22;62338;48.832;9.422;2023-06-22T13:18:51;31.50;1.00
4787;DHT22;62338;48.832;9.422;2023-06-22T13:20:52;31.50;1.00
4787;DHT22;62338;48.832;9.422;2023-06-22T13:22:56;31.40;54.80
4787;DHT22;62338;48.832;9.422;2023-06-22T13:24:59;31.40;1.00
4787;DHT22;62338;48.832;9.422;2023-06-22T13:27:01;31.30;1.00
4787;DHT22;62338;48.832;9.422;2023-06-22T13:29:03;31.30;1.00
4787;DHT22;62338;48.832;9.422;2023-06-22T13:31:04;31.30;99.90
4787;DHT22;62338;48.832;9.422;2023-06-22T13:33:07;31.40;83.00
4787;DHT22;62338;48.832;9.422;2023-06-22T13:35:27;31.50;99.90
4787;DHT22;62338;48.832;9.422;2023-06-22T13:37:29;31.80;99.90
4787;DHT22;62338;48.832;9.422;2023-06-22T13:39:48;32.10;32.00
4787;DHT22;62338;48.832;9.422;2023-06-22T13:42:07;32.60;99.90
4787;DHT22;62338;48.832;9.422;2023-06-22T13:44:27;33.00;99.90
4787;DHT22;62338;48.832;9.422;2023-06-22T13:46:30;33.20;99.90
4787;DHT22;62338;48.832;9.422;2023-06-22T13:48:49;33.20;99.90
4787;DHT22;62338;48.832;9.422;2023-06-22T13:50:52;33.10;99.90
4787;DHT22;62338;48.832;9.422;2023-06-22T13:52:53;33.00;99.90
4787;DHT22;62338;48.832;9.422;2023-06-22T13:54:55;33.00;99.90
4787;DHT22;62338;48.832;9.422;2023-06-22T13:56:57;32.80;99.90
4787;DHT22;62338;48.832;9.422;2023-06-22T13:58:59;32.80;99.90
4787;DHT22;62338;48.832;9.422;2023-06-22T14:01:00;32.80;99.90
4787;DHT22;62338;48.832;9.422;2023-06-22T14:03:02;32.90;99.90
4787;DHT22;62338;48.832;9.422;2023-06-22T14:05:05;32.80;99.90
4787;DHT22;62338;48.832;9.422;2023-06-22T14:07:07;32.80;99.90
4787;DHT22;62338;48.832;9.422;2023-06-22T14:09:09;33.10;99.90
4787;DHT22;62338;48.832;9.422;2023-06-22T14:11:11;33.30;99.90
4787;DHT22;62338;48.832;9.422;2023-06-22T14:13:13;33.50;99.90
4787;DHT22;62338;48.832;9.422;2023-06-22T14:15:15;33.80;99.90
4787;DHT22;62338;48.832;9.422;2023-06-22T14:17:16;34.20;99.90
4787;DHT22;62338;48.832;9.422;2023-06-22T14:19:18;34.30;63.00
4787;DHT22;62338;48.832;9.422;2023-06-22T14:21:20;34.60;95.10
4787;DHT22;62338;48.832;9.422;2023-06-22T14:23:22;34.70;14.80
4787;DHT22;62338;48.832;9.422;2023-06-22T14:25:23;34.60;1.00
4787;DHT22;62338;48.832;9.422;2023-06-22T14:27:25;34.50;1.00
4787;DHT22;62338;48.832;9.422;2023-06-22T14:29:27;34.50;1.00
4787;DHT22;62338;48.832;9.422;2023-06-22T14:31:28;34.30;1.00
4787;DHT22;62338;48.832;9.422;2023-06-22T14:33:30;34.10;1.00
4787;DHT22;62338;48.832;9.422;2023-06-22T14:35:32;33.80;1.00
4787;DHT22;62338;48.832;9.422;2023-06-22T14:37:34;33.70;1.00
4787;DHT22;62338;48.832;9.422;2023-06-22T14:39:36;33.50;1.00
4787;DHT22;62338;48.832;9.422;2023-06-22T14:41:37;33.40;1.00
4787;DHT22;62338;48.832;9.422;2023-06-22T14:43:43;33.40;1.00
4787;DHT22;62338;48.832;9.422;2023-06-22T14:45:46;33.40;1.00
4787;DHT22;62338;48.832;9.422;2023-06-22T14:47:48;33.60;1.00
4787;DHT22;62338;48.832;9.422;2023-06-22T14:49:49;34.00;1.00
4787;DHT22;62338;48.832;9.422;2023-06-22T14:51:51;34.30;1.00
4787;DHT22;62338;48.832;9.422;2023-06-22T14:53:53;34.60;1.00
4787;DHT22;62338;48.832;9.422;2023-06-22T14:55:55;34.90;1.00
4787;DHT22;62338;48.832;9.422;2023-06-22T14:57:56;34.70;1.00
4787;DHT22;62338;48.832;9.422;2023-06-22T14:59:58;34.70;1.00
4787;DHT22;62338;48.832;9.422;2023-06-22T15:02:00;34.90;1.00
4787;DHT22;62338;48.832;9.422;2023-06-22T15:04:02;34.70;1.00
4787;DHT22;62338;48.832;9.422;2023-06-22T15:06:04;35.10;1.00
4787;DHT22;62338;48.832;9.422;2023-06-22T15:08:06;35.40;1.00
4787;DHT22;62338;48.832;9.422;2023-06-22T15:10:10;35.50;1.00
4787;DHT22;62338;48.832;9.422;2023-06-22T15:12:12;35.60;1.00
4787;DHT22;62338;48.832;9.422;2023-06-22T15:14:14;35.50;1.00
4787;DHT22;62338;48.832;9.422;2023-06-22T15:16:16;35.30;1.00
4787;DHT22;62338;48.832;9.422;2023-06-22T15:18:17;35.20;1.00
4787;DHT22;62338;48.832;9.422;2023-06-22T15:20:19;35.00;1.00
4787;DHT22;62338;48.832;9.422;2023-06-22T15:22:21;34.70;1.00
4787;DHT22;62338;48.832;9.422;2023-06-22T15:24:23;34.20;1.00
4787;DHT22;62338;48.832;9.422;2023-06-22T15:26:24;34.10;1.00
4787;DHT22;62338;48.832;9.422;2023-06-22T15:28:28;34.20;1.00
4787;DHT22;62338;48.832;9.422;2023-06-22T15:30:30;34.40;1.00
4787;DHT22;62338;48.832;9.422;2023-06-22T15:32:32;34.80;1.00
4787;DHT22;62338;48.832;9.422;2023-06-22T15:34:34;35.00;1.00
4787;DHT22;62338;48.832;9.422;2023-06-22T15:36:36;34.90;1.00
4787;DHT22;62338;48.832;9.422;2023-06-22T15:38:38;34.60;1.00
4787;DHT22;62338;48.832;9.422;2023-06-22T15:40:39;34.50;1.00
4787;DHT22;62338;48.832;9.422;2023-06-22T15:42:41;34.70;1.00
4787;DHT22;62338;48.832;9.422;2023-06-22T15:44:43;34.70;1.00
4787;DHT22;62338;48.832;9.422;2023-06-22T15:46:45;34.50;1.00
4787;DHT22;62338;48.832;9.422;2023-06-22T15:48:46;34.00;1.00
4787;DHT22;62338;48.832;9.422;2023-06-22T15:50:51;33.60;1.00
4787;DHT22;62338;48.832;9.422;2023-06-22T15:52:53;32.90;1.00
4787;DHT22;62338;48.832;9.422;2023-06-22T15:54:55;32.30;1.00
4787;DHT22;62338;48.832;9.422;2023-06-22T15:56:58;31.90;1.00
4787;DHT22;62338;48.832;9.422;2023-06-22T15:59:00;31.60;1.00
4787;DHT22;62338;48.832;9.422;2023-06-22T16:01:03;31.50;1.00
4787;DHT22;62338;48.832;9.422;2023-06-22T16:03:07;31.40;1.00
4787;DHT22;62338;48.832;9.422;2023-06-22T16:05:10;31.10;1.00
4787;DHT22;62338;48.832;9.422;2023-06-22T16:07:12;31.30;1.00
4787;DHT22;62338;48.832;9.422;2023-06-22T16:09:14;31.40;1.00
4787;DHT22;62338;48.832;9.422;2023-06-22T16:11:16;31.50;1.00
4787;DHT22;62338;48.832;9.422;2023-06-22T16:13:18;31.50;1.00
4787;DHT22;62338;48.832;9.422;2023-06-22T16:15:20;31.70;1.00
4787;DHT22;62338;48.832;9.422;2023-06-22T16:17:22;31.70;1.00
4787;DHT22;62338;48.832;9.422;2023-06-22T16:19:24;31.40;1.00
4787;DHT22;62338;48.832;9.422;2023-06-22T16:21:25;31.10;1.00
4787;DHT22;62338;48.832;9.422;2023-06-22T16:23:27;30.70;1.00
4787;DHT22;62338;48.832;9.422;2023-06-22T16:25:29;30.50;1.00
4787;DHT22;62338;48.832;9.422;2023-06-22T16:27:31;30.20;1.00
4787;DHT22;62338;48.832;9.422;2023-06-22T16:29:34;30.10;1.00
4787;DHT22;62338;48.832;9.422;2023-06-22T16:31:36;30.00;1.00
4787;DHT22;62338;48.832;9.422;2023-06-22T16:33:38;29.90;1.00
4787;DHT22;62338;48.832;9.422;2023-06-22T16:35:40;29.80;1.00
4787;DHT22;62338;48.832;9.422;2023-06-22T16:37:42;29.70;1.00
4787;DHT22;62338;48.832;9.422;2023-06-22T16:39:44;29.70;1.00
4787;DHT22;62338;48.832;9.422;2023-06-22T16:41:46;29.60;1.00
4787;DHT22;62338;48.832;9.422;2023-06-22T16:43:48;29.50;1.00
4787;DHT22;62338;48.832;9.422;2023-06-22T16:45:50;29.40;1.00
4787;DHT22;62338;48.832;9.422;2023-06-22T16:47:51;29.30;1.00
4787;DHT22;62338;48.832;9.422;2023-06-22T16:49:53;29.20;1.00
4787;DHT22;62338;48.832;9.422;2023-06-22T16:51:55;29.10;1.00
4787;DHT22;62338;48.832;9.422;2023-06-22T16:53:57;29.10;1.00
4787;DHT22;62338;48.832;9.422;2023-06-22T16:55:59;29.00;1.00
4787;DHT22;62338;48.832;9.422;2023-06-22T16:58:01;28.90;1.00
4787;DHT22;62338;48.832;9.422;2023-06-22T17:00:05;28.80;1.00
4787;DHT22;62338;48.832;9.422;2023-06-22T17:02:17;28.70;1.00
4787;DHT22;62338;48.832;9.422;2023-06-22T17:04:21;28.60;1.00
4787;DHT22;62338;48.832;9.422;2023-06-22T17:06:24;28.50;1.00
4787;DHT22;62338;48.832;9.422;2023-06-22T17:08:29;28.40;1.00
4787;DHT22;62338;48.832;9.422;2023-06-22T17:10:34;28.30;1.00
4787;DHT22;62338;48.832;9.422;2023-06-22T17:12:43;28.20;1.00
4787;DHT22;62338;48.832;9.422;2023-06-22T17:14:45;28.00;1.00
4787;DHT22;62338;48.832;9.422;2023-06-22T17:16:48;27.90;1.00
4787;DHT22;62338;48.832;9.422;2023-06-22T17:18:52;27.80;1.00
4787;DHT22;62338;48.832;9.422;2023-06-22T17:20:54;27.70;1.00
4787;DHT22;62338;48.832;9.422;2023-06-22T17:22:56;27.60;1.00
4787;DHT22;62338;48.832;9.422;2023-06-22T17:24:58;27.60;1.00
4787;DHT22;62338;48.832;9.422;2023-06-22T17:27:00;27.50;1.00
4787;DHT22;62338;48.832;9.422;2023-06-22T17:29:01;27.40;1.00
4787;DHT22;62338;48.832;9.422;2023-06-22T17:31:10;27.40;1.00
4787;DHT22;62338;48.832;9.422;2023-06-22T17:33:15;27.30;1.00
4787;DHT22;62338;48.832;9.422;2023-06-22T17:35:19;27.30;1.00
4787;DHT22;62338;48.832;9.422;2023-06-22T17:37:20;27.20;1.00
4787;DHT22;62338;48.832;9.422;2023-06-22T17:39:24;27.20;1.00
4787;DHT22;62338;48.832;9.422;2023-06-22T17:41:32;27.00;1.00
4787;DHT22;62338;48.832;9.422;2023-06-22T17:43:52;27.00;1.00
4787;DHT22;62338;48.832;9.422;2023-06-22T17:45:57;26.80;1.00
4787;DHT22;62338;48.832;9.422;2023-06-22T17:47:59;26.80;1.00
4787;DHT22;62338;48.832;9.422;2023-06-22T17:50:05;26.70;1.00
4787;DHT22;62338;48.832;9.422;2023-06-22T17:52:17;26.70;1.00
4787;DHT22;62338;48.832;9.422;2023-06-22T17:54:20;26.70;1.00
4787;DHT22;62338;48.832;9.422;2023-06-22T17:56:36;26.70;1.00
4787;DHT22;62338;48.832;9.422;2023-06-22T17:58:37;26.60;1.00
4787;DHT22;62338;48.832;9.422;2023-06-22T18:00:40;26.50;1.00
4787;DHT22;62338;48.832;9.422;2023-06-22T18:02:44;26.50;1.00
4787;DHT22;62338;48.832;9.422;2023-06-22T18:04:47;26.40;1.00
4787;DHT22;62338;48.832;9.422;2023-06-22T18:06:49;26.30;1.00
4787;DHT22;62338;48.832;9.422;2023-06-22T18:08:51;26.20;1.00
4787;DHT22;62338;48.832;9.422;2023-06-22T18:10:56;26.10;1.00
4787;DHT22;62338;48.832;9.422;2023-06-22T18:13:01;25.90;1.00
4787;DHT22;62338;48.832;9.422;2023-06-22T18:15:05;25.90;1.00
4787;DHT22;62338;48.832;9.422;2023-06-22T18:17:08;25.70;3.80
4787;DHT22;62338;48.832;9.422;2023-06-22T18:19:10;25.70;24.30
4787;DHT22;62338;48.832;9.422;2023-06-22T18:21:14;25.60;47.80
4787;DHT22;62338;48.832;9.422;2023-06-22T18:23:18;25.50;47.20
4787;DHT22;62338;48.832;9.422;2023-06-22T18:25:20;25.50;81.60
4787;DHT22;62338;48.832;9.422;2023-06-22T18:27:24;25.40;91.60
4787;DHT22;62338;48.832;9.422;2023-06-22T18:29:27;25.30;90.80
4787;DHT22;62338;48.832;9.422;2023-06-22T18:31:30;25.20;95.30
4787;DHT22;62338;48.832;9.422;2023-06-22T18:33:33;25.10;99.90
4787;DHT22;62338;48.832;9.422;2023-06-22T18:35:37;25.00;99.90
4787;DHT22;62338;48.832;9.422;2023-06-22T18:37:40;25.00;99.90
4787;DHT22;62338;48.832;9.422;2023-06-22T18:39:45;24.90;99.90
4787;DHT22;62338;48.832;9.422;2023-06-22T18:41:54;24.80;99.90
4787;DHT22;62338;48.832;9.422;2023-06-22T18:43:59;24.70;99.90
4787;DHT22;62338;48.832;9.422;2023-06-22T18:46:29;24.60;99.90
4787;DHT22;62338;48.832;9.422;2023-06-22T18:48:31;24.50;99.90
4787;DHT22;62338;48.832;9.422;2023-06-22T18:52:40;24.30;1.00
4787;DHT22;62338;48.832;9.422;2023-06-22T18:54:43;24.20;1.00
4787;DHT22;62338;48.832;9.422;2023-06-22T18:56:57;24.10;1.00
4787;DHT22;62338;48.832;9.422;2023-06-22T18:58:59;24.00;1.00
4787;DHT22;62338;48.832;9.422;2023-06-22T19:01:17;24.00;1.00
4787;DHT22;62338;48.832;9.422;2023-06-22T19:03:29;24.00;1.00
4787;DHT22;62338;48.832;9.422;2023-06-22T19:05:42;23.90;1.00
4787;DHT22;62338;48.832;9.422;2023-06-22T19:12:23;23.80;99.90
4787;DHT22;62338;48.832;9.422;2023-06-22T19:14:27;23.80;99.90
4787;DHT22;62338;48.832;9.422;2023-06-22T19:16:29;23.70;99.90
4787;DHT22;62338;48.832;9.422;2023-06-22T19:20:35;23.60;99.90
4787;DHT22;62338;48.832;9.422;2023-06-22T19:23:03;23.60;1.00
4787;DHT22;62338;48.832;9.422;2023-06-22T19:25:17;23.50;1.00
4787;DHT22;62338;48.832;9.422;2023-06-22T19:27:20;23.40;1.00
4787;DHT22;62338;48.832;9.422;2023-06-22T19:29:22;23.30;48.70
4787;DHT22;62338;48.832;9.422;2023-06-22T19:31:25;23.20;99.90
4787;DHT22;62338;48.832;9.422;2023-06-22T19:33:30;23.10;1.00
4787;DHT22;62338;48.832;9.422;2023-06-22T19:35:34;23.00;99.90
4787;DHT22;62338;48.832;9.422;2023-06-22T19:37:36;22.90;1.00
4787;DHT22;62338;48.832;9.422;2023-06-22T19:39:37;22.70;99.90
4787;DHT22;62338;48.832;9.422;2023-06-22T19:41:39;22.60;99.90
4787;DHT22;62338;48.832;9.422;2023-06-22T19:43:42;22.50;99.90
4787;DHT22;62338;48.832;9.422;2023-06-22T19:45:44;22.40;99.90
4787;DHT22;62338;48.832;9.422;2023-06-22T19:47:46;22.40;1.00
4787;DHT22;62338;48.832;9.422;2023-06-22T19:49:48;22.30;1.00
4787;DHT22;62338;48.832;9.422;2023-06-22T19:51:50;22.20;1.00
4787;DHT22;62338;48.832;9.422;2023-06-22T19:53:51;22.20;99.90
4787;DHT22;62338;48.832;9.422;2023-06-22T19:55:53;22.20;99.90
4787;DHT22;62338;48.832;9.422;2023-06-22T19:57:55;22.10;99.90
4787;DHT22;62338;48.832;9.422;2023-06-22T19:59:57;22.10;1.00
4787;DHT22;62338;48.832;9.422;2023-06-22T20:01:59;22.00;5.30
4787;DHT22;62338;48.832;9.422;2023-06-22T20:04:02;21.90;99.90
4787;DHT22;62338;48.832;9.422;2023-06-22T20:06:15;21.80;1.00
4787;DHT22;62338;48.832;9.422;2023-06-22T20:08:19;21.70;2.10
4787;DHT22;62338;48.832;9.422;2023-06-22T20:10:22;21.70;99.90
4787;DHT22;62338;48.832;9.422;2023-06-22T20:12:24;21.70;99.90
4787;DHT22;62338;48.832;9.422;2023-06-22T20:14:35;21.60;99.90
4787;DHT22;62338;48.832;9.422;2023-06-22T20:16:46;21.60;99.90
4787;DHT22;62338;48.832;9.422;2023-06-22T20:19:05;21.50;99.90
4787;DHT22;62338;48.832;9.422;2023-06-22T20:21:10;21.50;99.90
4787;DHT22;62338;48.832;9.422;2023-06-22T20:23:20;21.50;99.90
4787;DHT22;62338;48.832;9.422;2023-06-22T20:25:23;21.40;99.90
4787;DHT22;62338;48.832;9.422;2023-06-22T20:27:25;21.40;99.90
4787;DHT22;62338;48.832;9.422;2023-06-22T20:29:32;21.40;99.90
4787;DHT22;62338;48.832;9.422;2023-06-22T20:31:40;21.30;99.90
4787;DHT22;62338;48.832;9.422;2023-06-22T20:33:41;21.30;99.90
4787;DHT22;62338;48.832;9.422;2023-06-22T20:35:44;21.30;99.90
4787;DHT22;62338;48.832;9.422;2023-06-22T20:37:47;21.30;99.90
4787;DHT22;62338;48.832;9.422;2023-06-22T20:39:49;21.30;99.90
4787;DHT22;62338;48.832;9.422;2023-06-22T20:41:51;21.20;99.90
4787;DHT22;62338;48.832;9.422;2023-06-22T20:43:53;21.20;99.90
4787;DHT22;62338;48.832;9.422;2023-06-22T20:45:55;21.20;99.90
4787;DHT22;62338;48.832;9.422;2023-06-22T20:47:58;21.20;99.90
4787;DHT22;62338;48.832;9.422;2023-06-22T20:50:00;21.10;99.90
4787;DHT22;62338;48.832;9.422;2023-06-22T20:52:02;21.10;99.90
4787;DHT22;62338;48.832;9.422;2023-06-22T20:54:08;21.10;99.90
4787;DHT22;62338;48.832;9.422;2023-06-22T20:56:09;21.10;99.90
4787;DHT22;62338;48.832;9.422;2023-06-22T20:58:11;21.10;99.90
4787;DHT22;62338;48.832;9.422;2023-06-22T21:00:13;21.10;99.90
4787;DHT22;62338;48.832;9.422;2023-06-22T21:02:15;21.10;99.90
4787;DHT22;62338;48.832;9.422;2023-06-22T21:04:17;21.10;99.90
4787;DHT22;62338;48.832;9.422;2023-06-22T21:06:19;21.20;99.90
4787;DHT22;62338;48.832;9.422;2023-06-22T21:08:21;21.20;99.90
4787;DHT22;62338;48.832;9.422;2023-06-22T21:10:23;21.20;99.90
4787;DHT22;62338;48.832;9.422;2023-06-22T21:12:25;21.20;99.90
4787;DHT22;62338;48.832;9.422;2023-06-22T21:14:27;21.20;99.90
4787;DHT22;62338;48.832;9.422;2023-06-22T21:16:28;21.30;99.90
4787;DHT22;62338;48.832;9.422;2023-06-22T21:18:30;21.40;99.90
4787;DHT22;62338;48.832;9.422;2023-06-22T21:20:32;21.30;99.90
4787;DHT22;62338;48.832;9.422;2023-06-22T21:22:34;21.30;99.90
4787;DHT22;62338;48.832;9.422;2023-06-22T21:24:36;21.30;99.90
4787;DHT22;62338;48.832;9.422;2023-06-22T21:26:38;21.20;99.90
4787;DHT22;62338;48.832;9.422;2023-06-22T21:28:40;21.10;99.90
4787;DHT22;62338;48.832;9.422;2023-06-22T21:30:41;20.90;99.90
4787;DHT22;62338;48.832;9.422;2023-06-22T21:32:43;20.80;99.90
4787;DHT22;62338;48.832;9.422;2023-06-22T21:34:45;20.60;99.90
4787;DHT22;62338;48.832;9.422;2023-06-22T21:36:47;20.50;99.90
4787;DHT22;62338;48.832;9.422;2023-06-22T21:38:49;20.50;99.90
4787;DHT22;62338;48.832;9.422;2023-06-22T21:40:51;20.30;99.90
4787;DHT22;62338;48.832;9.422;2023-06-22T21:42:53;20.30;99.90
4787;DHT22;62338;48.832;9.422;2023-06-22T21:44:58;20.20;99.90
4787;DHT22;62338;48.832;9.422;2023-06-22T21:47:01;20.10;99.90
4787;DHT22;62338;48.832;9.422;2023-06-22T21:49:03;20.10;99.90
4787;DHT22;62338;48.832;9.422;2023-06-22T21:51:05;20.00;99.90
4787;DHT22;62338;48.832;9.422;2023-06-22T21:53:07;19.90;99.90
4787;DHT22;62338;48.832;9.422;2023-06-22T21:55:09;19.90;99.90
4787;DHT22;62338;48.832;9.422;2023-06-22T21:57:11;19.80;99.90
4787;DHT22;62338;48.832;9.422;2023-06-22T21:59:13;19.80;99.90
4787;DHT22;62338;48.832;9.422;2023-06-22T22:01:15;19.70;99.90
4787;DHT22;62338;48.832;9.422;2023-06-22T22:03:16;19.70;99.90
4787;DHT22;62338;48.832;9.422;2023-06-22T22:05:19;19.60;99.90
4787;DHT22;62338;48.832;9.422;2023-06-22T22:07:20;19.50;99.90
4787;DHT22;62338;48.832;9.422;2023-06-22T22:09:22;19.50;99.90
4787;DHT22;62338;48.832;9.422;2023-06-22T22:11:24;19.40;99.90
4787;DHT22;62338;48.832;9.422;2023-06-22T22:13:26;19.40;99.90
4787;DHT22;62338;48.832;9.422;2023-06-22T22:15:28;19.30;99.90
4787;DHT22;62338;48.832;9.422;2023-06-22T22:17:31;19.30;99.90
4787;DHT22;62338;48.832;9.422;2023-06-22T22:19:33;19.20;99.90
4787;DHT22;62338;48.832;9.422;2023-06-22T22:21:35;19.10;99.90
4787;DHT22;62338;48.832;9.422;2023-06-22T22:23:37;19.10;99.90
4787;DHT22;62338;48.832;9.422;2023-06-22T22:25:38;19.00;99.90
4787;DHT22;62338;48.832;9.422;2023-06-22T22:27:40;19.00;99.90
4787;DHT22;62338;48.832;9.422;2023-06-22T22:29:42;18.90;99.90
4787;DHT22;62338;48.832;9.422;2023-06-22T22:31:44;18.90;99.90
4787;DHT22;62338;48.832;9.422;2023-06-22T22:33:45;18.90;99.90
4787;DHT22;62338;48.832;9.422;2023-06-22T22:35:47;18.80;99.90
4787;DHT22;62338;48.832;9.422;2023-06-22T22:37:49;18.80;99.90
4787;DHT22;62338;48.832;9.422;2023-06-22T22:39:51;18.80;99.90
4787;DHT22;62338;48.832;9.422;2023-06-22T22:41:52;18.70;99.90
4787;DHT22;62338;48.832;9.422;2023-06-22T22:43:56;18.70;99.90
4787;DHT22;62338;48.832;9.422;2023-06-22T22:45:58;18.70;99.90
4787;DHT22;62338;48.832;9.422;2023-06-22T22:48:00;18.70;99.90
4787;DHT22;62338;48.832;9.422;2023-06-22T22:50:02;18.70;99.90
4787;DHT22;62338;48.832;9.422;2023-06-22T22:52:04;18.60;99.90
4787;DHT22;62338;48.832;9.422;2023-06-22T22:54:06;18.60;99.90
4787;DHT22;62338;48.832;9.422;2023-06-22T22:56:09;18.60;99.90
4787;DHT22;62338;48.832;9.422;2023-06-22T22:58:11;18.60;99.90
4787;DHT22;62338;48.832;9.422;2023-06-22T23:00:13;18.60;99.90
4787;DHT22;62338;48.832;9.422;2023-06-22T23:02:16;18.60;99.90
4787;DHT22;62338;48.832;9.422;2023-06-22T23:04:18;18.70;99.90
4787;DHT22;62338;48.832;9.422;2023-06-22T23:06:20;18.70;99.90
4787;DHT22;62338;48.832;9.422;2023-06-22T23:08:23;18.80;99.90
4787;DHT22;62338;48.832;9.422;2023-06-22T23:10:24;18.80;99.90
4787;DHT22;62338;48.832;9.422;2023-06-22T23:12:26;18.80;99.90
4787;DHT22;62338;48.832;9.422;2023-06-22T23:14:28;18.80;99.90
4787;DHT22;62338;48.832;9.422;2023-06-22T23:16:30;18.80;99.90
4787;DHT22;62338;48.832;9.422;2023-06-22T23:18:31;18.80;99.90
4787;DHT22;62338;48.832;9.422;2023-06-22T23:20:34;18.80;99.90
4787;DHT22;62338;48.832;9.422;2023-06-22T23:22:36;18.80;99.90
4787;DHT22;62338;48.832;9.422;2023-06-22T23:24:38;18.80;99.90
4787;DHT22;62338;48.832;9.422;2023-06-22T23:26:40;18.80;99.90
4787;DHT22;62338;48.832;9.422;2023-06-22T23:28:42;18.70;99.90
4787;DHT22;62338;48.832;9.422;2023-06-22T23:30:44;18.70;99.90
4787;DHT22;62338;48.832;9.422;2023-06-22T23:32:46;18.70;99.90
4787;DHT22;62338;48.832;9.422;2023-06-22T23:34:47;18.60;99.90
4787;DHT22;62338;48.832;9.422;2023-06-22T23:36:49;18.70;99.90
4787;DHT22;62338;48.832;9.422;2023-06-22T23:38:51;18.70;99.90
4787;DHT22;62338;48.832;9.422;2023-06-22T23:40:53;18.70;99.90
4787;DHT22;62338;48.832;9.422;2023-06-22T23:42:54;18.70;99.90
4787;DHT22;62338;48.832;9.422;2023-06-22T23:44:56;18.70;99.90
4787;DHT22;62338;48.832;9.422;2023-06-22T23:46:58;18.70;99.90
4787;DHT22;62338;48.832;9.422;2023-06-22T23:49:00;18.70;99.90
4787;DHT22;62338;48.832;9.422;2023-06-22T23:51:01;18.70;99.90
4787;DHT22;62338;48.832;9.422;2023-06-22T23:53:03;18.70;99.90
4787;DHT22;62338;48.832;9.422;2023-06-22T23:55:05;18.70;99.90
4787;DHT22;62338;48.832;9.422;2023-06-22T23:57:08;18.70;99.90
4787;DHT22;62338;48.832;9.422;2023-06-22T23:59:10;18.70;99.90
